Observation data for Childress on 09/12/2017      Previous  Date  Next       Current Mesonet Observations  Soil Data  Daily Summary Page  Observations in Plain Language
KCXS 120500Z 14006KT 21/11 A3007 RMK A01 T02120109  RH  054%=      5-min Rain = 0
KCXS 120505Z 14006KT 21/11 A3007 RMK A01 T02090110  RH  055%=      5-min Rain = 0
KCXS 120510Z 14006KT 21/11 A3007 RMK A01 T02070110  RH  056%=      5-min Rain = 0
KCXS 120515Z 13006KT 21/11 A3007 RMK A01 T02060109  RH  056%=      5-min Rain = 0
KCXS 120520Z 13006KT 21/11 A3007 RMK A01 T02050110  RH  056%=      5-min Rain = 0
KCXS 120525Z 13006KT 20/11 A3007 RMK A01 T02040110  RH  056%=      5-min Rain = 0
KCXS 120530Z 13007KT 20/11 A3007 RMK A01 T02030110  RH  057%=      5-min Rain = 0
KCXS 120535Z 13007KT 20/11 A3006 RMK A01 T02030110  RH  057%=      5-min Rain = 0
KCXS 120540Z 12007KT 20/11 A3006 RMK A01 T02030110  RH  057%=      5-min Rain = 0
KCXS 120545Z 12007KT 20/11 A3006 RMK A01 T02020110  RH  057%=      5-min Rain = 0
KCXS 120550Z 12007KT 20/11 A3006 RMK A01 T02000111  RH  059%=      5-min Rain = 0
KCXS 120555Z 12008KT 20/11 A3006 RMK A01 T01990111  RH  059%=      5-min Rain = 0
KCXS 120600Z 13008KT 20/11 A3006 RMK A01 T01980112  RH  060%=      5-min Rain = 0
KCXS 120605Z 13007KT 20/11 A3006 RMK A01 T01960112  RH  060%=      5-min Rain = 0
KCXS 120610Z 14007KT 19/11 A3006 RMK A01 T01940111  RH  061%=      5-min Rain = 0
KCXS 120615Z 14007KT 19/11 A3006 RMK A01 T01940111  RH  061%=      5-min Rain = 0
KCXS 120620Z 14007KT 19/11 A3005 RMK A01 T01930111  RH  061%=      5-min Rain = 0
KCXS 120625Z 14006KT 19/11 A3005 RMK A01 T01920111  RH  061%=      5-min Rain = 0
KCXS 120630Z 14006KT 19/11 A3005 RMK A01 T01910111  RH  062%=      5-min Rain = 0
KCXS 120635Z 16005KT 19/11 A3005 RMK A01 T01890111  RH  063%=      5-min Rain = 0
KCXS 120640Z 16005KT 19/11 A3005 RMK A01 T01870110  RH  063%=      5-min Rain = 0
KCXS 120645Z 16006KT 19/11 A3005 RMK A01 T01870110  RH  063%=      5-min Rain = 0
KCXS 120650Z 17006KT 19/11 A3006 RMK A01 T01860110  RH  063%=      5-min Rain = 0
KCXS 120655Z 17005KT 19/11 A3006 RMK A01 T01880110  RH  063%=      5-min Rain = 0
KCXS 120700Z 17005KT 19/11 A3006 RMK A01 T01900110  RH  062%=      5-min Rain = 0
KCXS 120705Z 17005KT 19/11 A3006 RMK A01 T01910110  RH  061%=      5-min Rain = 0
KCXS 120710Z 18004KT 19/11 A3006 RMK A01 T01910109  RH  061%=      5-min Rain = 0
KCXS 120715Z 18005KT 19/11 A3005 RMK A01 T01940109  RH  060%=      5-min Rain = 0
KCXS 120720Z 18005KT 20/11 A3005 RMK A01 T01950108  RH  059%=      5-min Rain = 0
KCXS 120725Z 19006KT 20/11 A3005 RMK A01 T01950107  RH  059%=      5-min Rain = 0
KCXS 120730Z 20005KT 20/11 A3005 RMK A01 T01950107  RH  059%=      5-min Rain = 0
KCXS 120735Z 19005KT 20/11 A3005 RMK A01 T01950106  RH  058%=      5-min Rain = 0
KCXS 120740Z 18005KT 20/11 A3005 RMK A01 T01960106  RH  058%=      5-min Rain = 0
KCXS 120745Z 18004KT 20/11 A3005 RMK A01 T01960105  RH  058%=      5-min Rain = 0
KCXS 120750Z 19004KT 20/11 A3005 RMK A01 T01970105  RH  057%=      5-min Rain = 0
KCXS 120755Z 22002KT 20/11 A3005 RMK A01 T01960106  RH  058%=      5-min Rain = 0
KCXS 120800Z 22002KT 19/11 A3005 RMK A01 T01930107  RH  059%=      5-min Rain = 0
KCXS 120805Z 20003KT 19/11 A3004 RMK A01 T01910107  RH  060%=      5-min Rain = 0
KCXS 120810Z 21003KT 19/11 A3005 RMK A01 T01910107  RH  060%=      5-min Rain = 0
KCXS 120815Z 23002KT 19/11 A3004 RMK A01 T01890108  RH  061%=      5-min Rain = 0
KCXS 120820Z 25002KT 19/11 A3004 RMK A01 T01870107  RH  062%=      5-min Rain = 0
KCXS 120825Z 30001KT 19/11 A3004 RMK A01 T01860107  RH  062%=      5-min Rain = 0
KCXS 120830Z 32002KT 18/11 A3004 RMK A01 T01840106  RH  062%=      5-min Rain = 0
KCXS 120835Z 34003KT 18/11 A3004 RMK A01 T01800106  RH  064%=      5-min Rain = 0
KCXS 120840Z 34003KT 18/11 A3004 RMK A01 T01760106  RH  066%=      5-min Rain = 0
KCXS 120845Z 34003KT 17/11 A3004 RMK A01 T01740106  RH  067%=      5-min Rain = 0
KCXS 120850Z 34003KT 17/11 A3004 RMK A01 T01740107  RH  067%=      5-min Rain = 0
KCXS 120855Z 35004KT 17/11 A3004 RMK A01 T01740107  RH  067%=      5-min Rain = 0
KCXS 120900Z 36004KT 18/11 A3004 RMK A01 T01750110  RH  068%=      5-min Rain = 0
KCXS 120905Z 36004KT 18/11 A3004 RMK A01 T01750111  RH  069%=      5-min Rain = 0
KCXS 120910Z 36004KT 18/11 A3004 RMK A01 T01750111  RH  069%=      5-min Rain = 0
KCXS 120915Z 36003KT 17/11 A3004 RMK A01 T01740111  RH  069%=      5-min Rain = 0
KCXS 120920Z 36003KT 17/11 A3003 RMK A01 T01740111  RH  069%=      5-min Rain = 0
KCXS 120925Z 36003KT 18/11 A3003 RMK A01 T01750111  RH  069%=      5-min Rain = 0
KCXS 120930Z 36003KT 18/11 A3003 RMK A01 T01760111  RH  068%=      5-min Rain = 0
KCXS 120935Z 35003KT 18/11 A3003 RMK A01 T01780110  RH  067%=      5-min Rain = 0
KCXS 120940Z 35003KT 18/11 A3003 RMK A01 T01770110  RH  067%=      5-min Rain = 0
KCXS 120945Z 34003KT 18/11 A3003 RMK A01 T01750109  RH  068%=      5-min Rain = 0
KCXS 120950Z 33003KT 17/11 A3003 RMK A01 T01740110  RH  068%=      5-min Rain = 0
KCXS 120955Z 33003KT 17/11 A3003 RMK A01 T01740111  RH  069%=      5-min Rain = 0
KCXS 121000Z 34004KT 18/11 A3003 RMK A01 T01750112  RH  069%=      5-min Rain = 0
KCXS 121005Z 34004KT 17/11 A3003 RMK A01 T01740111  RH  069%=      5-min Rain = 0
KCXS 121010Z 34004KT 17/11 A3003 RMK A01 T01730111  RH  069%=      5-min Rain = 0
KCXS 121015Z 34004KT 17/11 A3003 RMK A01 T01720112  RH  070%=      5-min Rain = 0
KCXS 121020Z 34004KT 17/11 A3003 RMK A01 T01710112  RH  071%=      5-min Rain = 0
KCXS 121025Z 35004KT 17/11 A3003 RMK A01 T01700112  RH  071%=      5-min Rain = 0
KCXS 121030Z 35004KT 17/11 A3003 RMK A01 T01680111  RH  071%=      5-min Rain = 0
KCXS 121035Z 00004KT 17/11 A3003 RMK A01 T01680110  RH  072%=      5-min Rain = 0
KCXS 121040Z 01004KT 17/11 A3003 RMK A01 T01680110  RH  071%=      5-min Rain = 0
KCXS 121045Z 01004KT 17/11 A3003 RMK A01 T01680111  RH  072%=      5-min Rain = 0
KCXS 121050Z 01004KT 17/11 A3003 RMK A01 T01680111  RH  072%=      5-min Rain = 0
KCXS 121055Z 01004KT 17/11 A3003 RMK A01 T01690112  RH  072%=      5-min Rain = 0
KCXS 121100Z 01004KT 17/11 A3004 RMK A01 T01690112  RH  072%=      5-min Rain = 0
KCXS 121105Z 01004KT 17/11 A3004 RMK A01 T01700112  RH  071%=      5-min Rain = 0
KCXS 121110Z 01004KT 17/11 A3004 RMK A01 T01690112  RH  071%=      5-min Rain = 0
KCXS 121115Z 01004KT 17/11 A3004 RMK A01 T01690112  RH  072%=      5-min Rain = 0
KCXS 121120Z 01004KT 17/11 A3004 RMK A01 T01680112  RH  072%=      5-min Rain = 0
KCXS 121125Z 01004KT 17/11 A3003 RMK A01 T01670112  RH  073%=      5-min Rain = 0
KCXS 121130Z 01004KT 17/11 A3003 RMK A01 T01670113  RH  073%=      5-min Rain = 0
KCXS 121135Z 01004KT 17/11 A3003 RMK A01 T01680113  RH  072%=      5-min Rain = 0
KCXS 121140Z 01004KT 17/11 A3003 RMK A01 T01680113  RH  072%=      5-min Rain = 0
KCXS 121145Z 01004KT 17/11 A3004 RMK A01 T01680113  RH  072%=      5-min Rain = 0
KCXS 121150Z 01004KT 17/11 A3003 RMK A01 T01680112  RH  072%=      5-min Rain = 0
KCXS 121155Z 01004KT 17/11 A3003 RMK A01 T01680112  RH  072%=      5-min Rain = 0
KCXS 121200Z 01004KT 17/11 A3003 RMK A01 T01690112  RH  072%=      5-min Rain = 0
KCXS 121205Z 01003KT 17/11 A3004 RMK A01 T01690112  RH  072%=      5-min Rain = 0
KCXS 121210Z 01003KT 17/11 A3004 RMK A01 T01690112  RH  072%=      5-min Rain = 0
KCXS 121215Z 01004KT 17/11 A3004 RMK A01 T01670112  RH  072%=      5-min Rain = 0
KCXS 121220Z 01004KT 17/11 A3004 RMK A01 T01670112  RH  073%=      5-min Rain = 0
KCXS 121225Z 01003KT 17/11 A3004 RMK A01 T01670112  RH  073%=      5-min Rain = 0
KCXS 121230Z 01003KT 17/11 A3003 RMK A01 T01670112  RH  073%=      5-min Rain = 0
KCXS 121235Z 01003KT 17/11 A3003 RMK A01 T01660112  RH  073%=      5-min Rain = 0
KCXS 121240Z 01003KT 16/11 A3003 RMK A01 T01640112  RH  074%=      5-min Rain = 0
KCXS 121245Z 01003KT 16/11 A3003 RMK A01 T01630112  RH  074%=      5-min Rain = 0
KCXS 121250Z 00004KT 16/11 A3003 RMK A01 T01620112  RH  075%=      5-min Rain = 0
KCXS 121255Z 00003KT 16/11 A3003 RMK A01 T01640113  RH  074%=      5-min Rain = 0
KCXS 121300Z 00003KT 17/11 A3004 RMK A01 T01660113  RH  074%=      5-min Rain = 0
KCXS 121305Z 00003KT 17/12 A3004 RMK A01 T01660115  RH  074%=      5-min Rain = 0
KCXS 121310Z 00003KT 17/12 A3004 RMK A01 T01670116  RH  074%=      5-min Rain = 0
KCXS 121315Z 36003KT 17/12 A3004 RMK A01 T01690117  RH  074%=      5-min Rain = 0
KCXS 121320Z 36003KT 17/12 A3004 RMK A01 T01730118  RH  073%=      5-min Rain = 0
KCXS 121325Z 36002KT 18/12 A3003 RMK A01 T01770121  RH  072%=      5-min Rain = 0
KCXS 121330Z 36002KT 18/12 A3003 RMK A01 T01810122  RH  071%=      5-min Rain = 0
KCXS 121335Z 36002KT 18/12 A3003 RMK A01 T01830122  RH  070%=      5-min Rain = 0
KCXS 121340Z 36002KT 19/12 A3003 RMK A01 T01860122  RH  069%=      5-min Rain = 0
KCXS 121345Z 36002KT 19/12 A3003 RMK A01 T01880124  RH  069%=      5-min Rain = 0
KCXS 121350Z 36002KT 19/12 A3003 RMK A01 T01900124  RH  068%=      5-min Rain = 0
KCXS 121355Z 36001KT 19/13 A3003 RMK A01 T01940126  RH  067%=      5-min Rain = 0
KCXS 121400Z 00002KT 20/13 A3003 RMK A01 T01970127  RH  066%=      5-min Rain = 0
KCXS 121405Z 00002KT 20/13 A3003 RMK A01 T02010125  RH  064%=      5-min Rain = 0
KCXS 121410Z 00001KT 21/13 A3003 RMK A01 T02050125  RH  062%=      5-min Rain = 0
KCXS 121415Z 00001KT 21/13 A3003 RMK A01 T02100127  RH  061%=      5-min Rain = 0
KCXS 121420Z 00000KT 22/12 A3003 RMK A01 T02170123  RH  057%=      5-min Rain = 0
KCXS 121425Z 00000KT 23/12 A3003 RMK A01 T02250121  RH  054%=      5-min Rain = 0
KCXS 121430Z 23001KT 23/11 A3003 RMK A01 T02320114  RH  049%=      5-min Rain = 0
KCXS 121435Z 20001KT 24/11 A3003 RMK A01 T02350108  RH  046%=      5-min Rain = 0
KCXS 121440Z 21001KT 24/11 A3003 RMK A01 T02370105  RH  045%=      5-min Rain = 0
KCXS 121445Z 19002KT 24/11 A3003 RMK A01 T02420109  RH  045%=      5-min Rain = 0
KCXS 121450Z 16002KT 24/11 A3003 RMK A01 T02430112  RH  045%=      5-min Rain = 0
KCXS 121455Z 15002KT 25/12 A3003 RMK A01 T02460115  RH  045%=      5-min Rain = 0
KCXS 121500Z 20002KT 25/11 A3003 RMK A01 T02470113  RH  044%=      5-min Rain = 0
KCXS 121505Z 17002KT 25/11 A3003 RMK A01 T02480112  RH  044%=      5-min Rain = 0
KCXS 121510Z 17002KT 25/11 A3003 RMK A01 T02500111  RH  043%=      5-min Rain = 0
KCXS 121515Z 14004KT 25/11 A3003 RMK A01 T02520112  RH  043%=      5-min Rain = 0
KCXS 121520Z 14003KT 25/11 A3003 RMK A01 T02510110  RH  043%=      5-min Rain = 0
KCXS 121525Z 17003KT 26/11 A3003 RMK A01 T02550111  RH  042%=      5-min Rain = 0
KCXS 121530Z 16004KT 26/11 A3003 RMK A01 T02570110  RH  041%=      5-min Rain = 0
KCXS 121535Z 19005KT 26/10 A3003 RMK A01 T02580104  RH  039%=      5-min Rain = 0
KCXS 121540Z 19004KT 26/10 A3003 RMK A01 T02560103  RH  039%=      5-min Rain = 0
KCXS 121545Z 19004KT 26/10 A3003 RMK A01 T02560104  RH  040%=      5-min Rain = 0
KCXS 121550Z 19004KT 26/10 A3003 RMK A01 T02600104  RH  039%=      5-min Rain = 0
KCXS 121555Z 19006KT 26/10 A3003 RMK A01 T02620103  RH  038%=      5-min Rain = 0
KCXS 121600Z 18005KT 26/10 A3003 RMK A01 T02640103  RH  038%=      5-min Rain = 0
KCXS 121605Z 21005KT 27/10 A3003 RMK A01 T02650104  RH  038%=      5-min Rain = 0
KCXS 121610Z 19005KT 27/10 A3003 RMK A01 T02680104  RH  037%=      5-min Rain = 0
KCXS 121615Z 19003KT 27/10 A3002 RMK A01 T02680102  RH  037%=      5-min Rain = 0
KCXS 121620Z 16004KT 27/10 A3002 RMK A01 T02710101  RH  036%=      5-min Rain = 0
KCXS 121625Z 21002KT 27/10 A3002 RMK A01 T02700102  RH  036%=      5-min Rain = 0
KCXS 121630Z 19002KT 27/10 A3002 RMK A01 T02710102  RH  036%=      5-min Rain = 0
KCXS 121640Z 15003KT 27/10 A3002 RMK A01 T02740102  RH  035%=      5-min Rain = 0
KCXS 121645Z 15003KT 28/10 A3002 RMK A01 T02760102  RH  035%=      5-min Rain = 0
KCXS 121650Z 13003G9KT 28/10 A3002 RMK A01 T02770101  RH  034%=      5-min Rain = 0
KCXS 121655Z 20005KT 28/10 A3001 RMK A01 T02790102  RH  034%=      5-min Rain = 0
KCXS 121700Z 16003KT 28/10 A3001 RMK A01 T02780102  RH  034%=      5-min Rain = 0
KCXS 121705Z 15004KT 28/10 A3001 RMK A01 T02820101  RH  034%=      5-min Rain = 0
KCXS 121710Z 16001KT 28/10 A3001 RMK A01 T02810101  RH  033%=      5-min Rain = 0
KCXS 121715Z 19002KT 28/10 A3001 RMK A01 T02830101  RH  033%=      5-min Rain = 0
KCXS 121720Z 15002KT 29/10 A3001 RMK A01 T02860102  RH  033%=      5-min Rain = 0
KCXS 121725Z 13005KT 29/10 A30 RMK A01 T02870104  RH  033%=      5-min Rain = 0
KCXS 121730Z 14005KT 29/10 A30 RMK A01 T02910104  RH  032%=      5-min Rain = 0
KCXS 121735Z 16004KT 29/10 A30 RMK A01 T02880102  RH  033%=      5-min Rain = 0
KCXS 121740Z 21002KT 29/10 A30 RMK A01 T02860103  RH  033%=      5-min Rain = 0
KCXS 121745Z 15004KT 29/11 A30 RMK A01 T02920106  RH  032%=      5-min Rain = 0
KCXS 121750Z 13003KT 29/10 A30 RMK A01 T02920104  RH  032%=      5-min Rain = 0
KCXS 121755Z 08006KT 29/11 A2999 RMK A01 T02910105  RH  033%=      5-min Rain = 0
KCXS 121800Z 11004KT 29/10 A2999 RMK A01 T02910103  RH  032%=      5-min Rain = 0
KCXS 121805Z 07005KT 29/10 A2999 RMK A01 T02890104  RH  033%=      5-min Rain = 0
KCXS 121810Z 07002KT 29/11 A2999 RMK A01 T02920105  RH  032%=      5-min Rain = 0
KCXS 121815Z 08006KT 30/11 A2998 RMK A01 T02970106  RH  032%=      5-min Rain = 0
KCXS 121820Z 07006KT 30/11 A2998 RMK A01 T02960105  RH  032%=      5-min Rain = 0
KCXS 121825Z 05004KT 30/11 A2998 RMK A01 T02950105  RH  032%=      5-min Rain = 0
KCXS 121830Z 07004KT 30/11 A2998 RMK A01 T02950106  RH  032%=      5-min Rain = 0
KCXS 121835Z 01004KT 30/11 A2998 RMK A01 T02980105  RH  031%=      5-min Rain = 0
KCXS 121840Z 11003KT 30/11 A2998 RMK A01 T02980106  RH  032%=      5-min Rain = 0
KCXS 121845Z 13004KT 30/11 A2998 RMK A01 T03030109  RH  031%=      5-min Rain = 0
KCXS 121850Z 07005KT 30/11 A2997 RMK A01 T03040109  RH  031%=      5-min Rain = 0
KCXS 121855Z 09004KT 30/11 A2997 RMK A01 T03040107  RH  031%=      5-min Rain = 0
KCXS 121900Z 10005KT 31/11 A2997 RMK A01 T03050107  RH  030%=      5-min Rain = 0
KCXS 121905Z 04003KT 31/11 A2996 RMK A01 T03060106  RH  030%=      5-min Rain = 0
KCXS 121910Z 09002KT 31/11 A2996 RMK A01 T03070105  RH  030%=      5-min Rain = 0
KCXS 121915Z 09003G8KT 31/11 A2996 RMK A01 T03070106  RH  030%=      5-min Rain = 0
KCXS 121920Z 14006KT 31/11 A2995 RMK A01 T03080108  RH  030%=      5-min Rain = 0
KCXS 121925Z 14004KT 31/11 A2995 RMK A01 T03100106  RH  029%=      5-min Rain = 0
KCXS 121930Z 15005KT 31/11 A2995 RMK A01 T03090107  RH  030%=      5-min Rain = 0
KCXS 121935Z 17002KT 31/11 A2995 RMK A01 T03050105  RH  030%=      5-min Rain = 0
KCXS 121940Z 10003KT 31/11 A2994 RMK A01 T03060107  RH  030%=      5-min Rain = 0
KCXS 121945Z 14003KT 31/11 A2994 RMK A01 T03080106  RH  030%=      5-min Rain = 0
KCXS 121950Z 08006KT 31/10 A2994 RMK A01 T03120104  RH  029%=      5-min Rain = 0
KCXS 121955Z 06004KT 31/10 A2993 RMK A01 T03140101  RH  028%=      5-min Rain = 0
KCXS 122000Z 02004G11KT 31/10 A2993 RMK A01 T03130104  RH  028%=      5-min Rain = 0
KCXS 122005Z 06004KT 32/11 A2993 RMK A01 T03190107  RH  028%=      5-min Rain = 0
KCXS 122010Z 14003G8KT 32/11 A2993 RMK A01 T03170105  RH  028%=      5-min Rain = 0
KCXS 122015Z 14004KT 32/11 A2993 RMK A01 T03150106  RH  029%=      5-min Rain = 0
KCXS 122020Z 06006KT 32/10 A2993 RMK A01 T03160103  RH  028%=      5-min Rain = 0
KCXS 122025Z 06006KT 32/10 A2992 RMK A01 T03150102  RH  028%=      5-min Rain = 0
KCXS 122030Z 06003KT 32/10 A2992 RMK A01 T03170100  RH  027%=      5-min Rain = 0
KCXS 122035Z 07006G16KT 32/10 A2992 RMK A01 T03180098  RH  027%=      5-min Rain = 0
KCXS 122040Z 06006KT 32/10 A2991 RMK A01 T03190097  RH  026%=      5-min Rain = 0
KCXS 122045Z 05004KT 32/09 A2991 RMK A01 T03170094  RH  026%=      5-min Rain = 0
KCXS 122050Z 03006KT 32/10 A2991 RMK A01 T03200095  RH  026%=      5-min Rain = 0
KCXS 122055Z 04006G11KT 32/09 A2991 RMK A01 T03180094  RH  026%=      5-min Rain = 0
KCXS 122100Z 05007KT 32/09 A2991 RMK A01 T03200092  RH  025%=      5-min Rain = 0
KCXS 122105Z 07007KT 32/09 A299 RMK A01 T03200092  RH  025%=      5-min Rain = 0
KCXS 122110Z 06006KT 32/09 A299 RMK A01 T03200091  RH  025%=      5-min Rain = 0
KCXS 122115Z 05007KT 32/10 A299 RMK A01 T03190097  RH  026%=      5-min Rain = 0
KCXS 122120Z 07004KT 32/09 A299 RMK A01 T03200094  RH  026%=      5-min Rain = 0
KCXS 122125Z 08004KT 32/09 A299 RMK A01 T03180091  RH  025%=      5-min Rain = 0
KCXS 122130Z 07005G15KT 32/09 A299 RMK A01 T03200092  RH  025%=      5-min Rain = 0
KCXS 122135Z 07005KT 32/09 A2989 RMK A01 T03220093  RH  025%=      5-min Rain = 0
KCXS 122140Z 06006KT 32/10 A2989 RMK A01 T03230095  RH  025%=      5-min Rain = 0
KCXS 122145Z 08005KT 32/10 A2989 RMK A01 T03230095  RH  025%=      5-min Rain = 0
KCXS 122150Z 05006KT 32/10 A2989 RMK A01 T03230095  RH  025%=      5-min Rain = 0
KCXS 122155Z 04007G12KT 32/09 A2989 RMK A01 T03240093  RH  025%=      5-min Rain = 0
KCXS 122200Z 05008G13KT 32/09 A2989 RMK A01 T03220092  RH  025%=      5-min Rain = 0
KCXS 122205Z 05003KT 32/09 A2988 RMK A01 T03200090  RH  025%=      5-min Rain = 0
KCXS 122210Z 10003KT 32/09 A2988 RMK A01 T03180094  RH  026%=      5-min Rain = 0
KCXS 122215Z 03005KT 31/10 A2988 RMK A01 T03140096  RH  027%=      5-min Rain = 0
KCXS 122220Z 04006KT 31/10 A2988 RMK A01 T03100097  RH  028%=      5-min Rain = 0
KCXS 122225Z 07008KT 31/10 A2988 RMK A01 T03110096  RH  027%=      5-min Rain = 0
KCXS 122230Z 06008KT 31/10 A2988 RMK A01 T03120097  RH  027%=      5-min Rain = 0
KCXS 122235Z 06007KT 31/10 A2988 RMK A01 T03100096  RH  027%=      5-min Rain = 0
KCXS 122240Z 07006KT 31/10 A2988 RMK A01 T03070095  RH  028%=      5-min Rain = 0
KCXS 122245Z 06006KT 31/10 A2988 RMK A01 T03080096  RH  028%=      5-min Rain = 0
KCXS 122250Z 07006KT 31/10 A2988 RMK A01 T03060097  RH  028%=      5-min Rain = 0
KCXS 122255Z 05006KT 31/10 A2988 RMK A01 T03050096  RH  028%=      5-min Rain = 0
KCXS 122300Z 04005KT 31/10 A2988 RMK A01 T03060095  RH  028%=      5-min Rain = 0
KCXS 122305Z 09006KT 31/10 A2988 RMK A01 T03090097  RH  028%=      5-min Rain = 0
KCXS 122310Z 09006KT 31/09 A2988 RMK A01 T03080094  RH  027%=      5-min Rain = 0
KCXS 122315Z 07004KT 31/10 A2988 RMK A01 T03080095  RH  028%=      5-min Rain = 0
KCXS 122320Z 07004KT 31/10 A2988 RMK A01 T03080097  RH  028%=      5-min Rain = 0
KCXS 122325Z 03005KT 31/10 A2988 RMK A01 T03090099  RH  028%=      5-min Rain = 0
KCXS 122330Z 05005KT 31/10 A2988 RMK A01 T03100098  RH  028%=      5-min Rain = 0
KCXS 122335Z 05006KT 31/10 A2988 RMK A01 T03110096  RH  027%=      5-min Rain = 0
KCXS 122340Z 07007KT 31/10 A2988 RMK A01 T03100095  RH  027%=      5-min Rain = 0
KCXS 122345Z 07006KT 31/09 A2988 RMK A01 T03080092  RH  027%=      5-min Rain = 0
KCXS 122350Z 06005KT 31/09 A2987 RMK A01 T03070093  RH  027%=      5-min Rain = 0
KCXS 122355Z 07006KT 31/09 A2987 RMK A01 T03060093  RH  027%=      5-min Rain = 0
KCXS 130000Z 07006KT 31/09 A2987 RMK A01 T03050092  RH  027%=      5-min Rain = 0
KCXS 130005Z 06007KT 30/09 A2987 RMK A01 T03020089  RH  027%=      5-min Rain = 0
KCXS 130010Z 07007KT 30/09 A2987 RMK A01 T03000088  RH  027%=      5-min Rain = 0
KCXS 130015Z 06006KT 30/09 A2987 RMK A01 T02990088  RH  028%=      5-min Rain = 0
KCXS 130020Z 07007KT 30/09 A2987 RMK A01 T02960088  RH  028%=      5-min Rain = 0
KCXS 130025Z 07007KT 29/09 A2987 RMK A01 T02940092  RH  029%=      5-min Rain = 0
KCXS 130030Z 07006KT 29/09 A2987 RMK A01 T02910094  RH  030%=      5-min Rain = 0
KCXS 130035Z 07006KT 29/10 A2987 RMK A01 T02880095  RH  031%=      5-min Rain = 0
KCXS 130040Z 07006KT 29/10 A2987 RMK A01 T02850095  RH  031%=      5-min Rain = 0
KCXS 130045Z 07005KT 28/10 A2986 RMK A01 T02820095  RH  032%=      5-min Rain = 0
KCXS 130050Z 07005KT 28/10 A2987 RMK A01 T02780096  RH  033%=      5-min Rain = 0
KCXS 130055Z 09006G12KT 27/10 A2987 RMK A01 T02740098  RH  034%=      5-min Rain = 0
KCXS 130100Z 09009KT 27/10 A2987 RMK A01 T02700095  RH  034%=      5-min Rain = 0
KCXS 130105Z 10008KT 27/10 A2987 RMK A01 T02660095  RH  035%=      5-min Rain = 0
KCXS 130110Z 10008KT 26/10 A2987 RMK A01 T02630095  RH  036%=      5-min Rain = 0
KCXS 130115Z 10007KT 26/10 A2987 RMK A01 T02600096  RH  037%=      5-min Rain = 0
KCXS 130120Z 10008KT 26/10 A2987 RMK A01 T02570097  RH  038%=      5-min Rain = 0
KCXS 130125Z 10007KT 25/10 A2987 RMK A01 T02540098  RH  039%=      5-min Rain = 0
KCXS 130130Z 10007KT 25/10 A2987 RMK A01 T02510100  RH  040%=      5-min Rain = 0
KCXS 130135Z 10007KT 25/10 A2987 RMK A01 T02480102  RH  041%=      5-min Rain = 0
KCXS 130140Z 10008KT 25/10 A2987 RMK A01 T02460103  RH  042%=      5-min Rain = 0
KCXS 130145Z 09007KT 24/10 A2987 RMK A01 T02440104  RH  043%=      5-min Rain = 0
KCXS 130150Z 10008KT 24/10 A2988 RMK A01 T02420104  RH  043%=      5-min Rain = 0
KCXS 130155Z 10008KT 24/11 A2988 RMK A01 T02420105  RH  043%=      5-min Rain = 0
KCXS 130200Z 10008KT 24/11 A2988 RMK A01 T02410105  RH  044%=      5-min Rain = 0
KCXS 130205Z 10008KT 24/11 A2988 RMK A01 T02410105  RH  044%=      5-min Rain = 0
KCXS 130210Z 10008KT 24/11 A2988 RMK A01 T02410106  RH  044%=      5-min Rain = 0
KCXS 130215Z 10007KT 24/11 A2988 RMK A01 T02390106  RH  045%=      5-min Rain = 0
KCXS 130220Z 12006KT 23/11 A2988 RMK A01 T02340109  RH  047%=      5-min Rain = 0
KCXS 130225Z 13005KT 23/11 A2988 RMK A01 T02300109  RH  048%=      5-min Rain = 0
KCXS 130230Z 12006KT 23/11 A2988 RMK A01 T02300108  RH  048%=      5-min Rain = 0
KCXS 130235Z 12006KT 23/11 A2988 RMK A01 T02290108  RH  048%=      5-min Rain = 0
KCXS 130240Z 12006KT 23/11 A2988 RMK A01 T02280109  RH  049%=      5-min Rain = 0
KCXS 130245Z 12006KT 23/11 A2988 RMK A01 T02260109  RH  049%=      5-min Rain = 0
KCXS 130250Z 12006KT 23/11 A2988 RMK A01 T02250109  RH  049%=      5-min Rain = 0
KCXS 130255Z 13005KT 23/11 A2988 RMK A01 T02260108  RH  049%=      5-min Rain = 0
KCXS 130300Z 12006KT 23/11 A2989 RMK A01 T02260108  RH  049%=      5-min Rain = 0
KCXS 130305Z 11007KT 23/11 A2989 RMK A01 T02260108  RH  049%=      5-min Rain = 0
KCXS 130310Z 10008KT 22/11 A2989 RMK A01 T02240108  RH  050%=      5-min Rain = 0
KCXS 130315Z 11008KT 22/11 A2989 RMK A01 T02220108  RH  050%=      5-min Rain = 0
KCXS 130320Z 12008KT 22/11 A2989 RMK A01 T02200108  RH  051%=      5-min Rain = 0
KCXS 130325Z 12008KT 22/11 A2989 RMK A01 T02160110  RH  052%=      5-min Rain = 0
KCXS 130330Z 12008KT 21/11 A2989 RMK A01 T02140110  RH  053%=      5-min Rain = 0
KCXS 130335Z 12008KT 21/11 A2989 RMK A01 T02140110  RH  053%=      5-min Rain = 0
KCXS 130340Z 12008KT 21/11 A2989 RMK A01 T02130110  RH  054%=      5-min Rain = 0
KCXS 130345Z 13007KT 21/11 A2989 RMK A01 T02100110  RH  055%=      5-min Rain = 0
KCXS 130350Z 12008KT 21/11 A2989 RMK A01 T02090110  RH  055%=      5-min Rain = 0
KCXS 130355Z 12008KT 21/11 A2989 RMK A01 T02080110  RH  055%=      5-min Rain = 0
KCXS 130400Z 12008KT 21/11 A2989 RMK A01 T02070111  RH  056%=      5-min Rain = 0
KCXS 130405Z 12009KT 21/11 A2989 RMK A01 T02060111  RH  056%=      5-min Rain = 0
KCXS 130410Z 12009KT 21/11 A2989 RMK A01 T02050111  RH  057%=      5-min Rain = 0
KCXS 130415Z 12009KT 20/11 A2989 RMK A01 T02040111  RH  057%=      5-min Rain = 0
KCXS 130420Z 12009KT 20/11 A2989 RMK A01 T02030111  RH  058%=      5-min Rain = 0
KCXS 130425Z 12008KT 20/11 A2989 RMK A01 T02010112  RH  058%=      5-min Rain = 0
KCXS 130430Z 13008KT 20/11 A2989 RMK A01 T02000112  RH  059%=      5-min Rain = 0
KCXS 130435Z 13008KT 20/11 A2989 RMK A01 T02000110  RH  058%=      5-min Rain = 0
KCXS 130440Z 14007KT 20/11 A2989 RMK A01 T02010110  RH  058%=      5-min Rain = 0
KCXS 130445Z 15007KT 20/11 A2989 RMK A01 T02000110  RH  058%=      5-min Rain = 0
KCXS 130450Z 14008KT 20/11 A2989 RMK A01 T02000109  RH  058%=      5-min Rain = 0
KCXS 130455Z 13008KT 20/11 A2989 RMK A01 T02010109  RH  057%=      5-min Rain = 0

Page generated in 0.0245 seconds.